sensor_id;sensor_type;location;lat;lon;timestamp;pressure;altitude;pressure_sealevel;temperature;humidity
75460;BME280;64039;53.060;9.342;2023-02-19T00:01:00;101066.66;;;5.21;100.00
75460;BME280;64039;53.060;9.342;2023-02-19T00:03:26;101063.28;;;5.42;100.00
75460;BME280;64039;53.060;9.342;2023-02-19T00:05:52;101077.72;;;5.56;100.00
75460;BME280;64039;53.060;9.342;2023-02-19T00:08:18;101081.66;;;5.48;100.00
75460;BME280;64039;53.060;9.342;2023-02-19T00:10:43;101085.03;;;5.47;100.00
75460;BME280;64039;53.060;9.342;2023-02-19T00:13:08;101080.75;;;5.47;100.00
75460;BME280;64039;53.060;9.342;2023-02-19T00:15:34;101072.88;;;5.44;100.00
75460;BME280;64039;53.060;9.342;2023-02-19T00:17:59;101073.47;;;5.39;100.00
75460;BME280;64039;53.060;9.342;2023-02-19T00:20:25;101073.69;;;5.43;100.00
75460;BME280;64039;53.060;9.342;2023-02-19T00:22:50;101073.16;;;5.50;100.00
75460;BME280;64039;53.060;9.342;2023-02-19T00:25:16;101068.81;;;5.49;100.00
75460;BME280;64039;53.060;9.342;2023-02-19T00:27:41;101073.91;;;5.48;100.00
75460;BME280;64039;53.060;9.342;2023-02-19T00:30:07;101079.72;;;5.44;100.00
75460;BME280;64039;53.060;9.342;2023-02-19T00:32:33;101083.97;;;5.24;100.00
75460;BME280;64039;53.060;9.342;2023-02-19T00:34:58;101078.06;;;5.26;100.00
75460;BME280;64039;53.060;9.342;2023-02-19T00:37:23;101081.00;;;5.34;100.00
75460;BME280;64039;53.060;9.342;2023-02-19T00:39:49;101071.56;;;5.34;100.00
75460;BME280;64039;53.060;9.342;2023-02-19T00:42:15;101078.28;;;5.31;100.00
75460;BME280;64039;53.060;9.342;2023-02-19T00:44:40;101090.84;;;5.23;100.00
75460;BME280;64039;53.060;9.342;2023-02-19T00:47:05;101081.38;;;5.24;100.00
75460;BME280;64039;53.060;9.342;2023-02-19T00:49:31;101086.16;;;5.34;100.00
75460;BME280;64039;53.060;9.342;2023-02-19T00:51:56;101085.00;;;5.09;100.00
75460;BME280;64039;53.060;9.342;2023-02-19T00:54:22;101093.06;;;4.97;100.00
75460;BME280;64039;53.060;9.342;2023-02-19T00:56:48;101085.09;;;4.93;100.00
75460;BME280;64039;53.060;9.342;2023-02-19T00:59:14;101082.28;;;5.06;100.00
75460;BME280;64039;53.060;9.342;2023-02-19T01:01:40;101081.13;;;4.99;100.00
75460;BME280;64039;53.060;9.342;2023-02-19T01:04:05;101079.47;;;5.01;100.00
75460;BME280;64039;53.060;9.342;2023-02-19T01:06:31;101076.16;;;5.04;100.00
75460;BME280;64039;53.060;9.342;2023-02-19T01:08:57;101080.28;;;5.00;100.00
75460;BME280;64039;53.060;9.342;2023-02-19T01:11:22;101082.94;;;4.84;100.00
75460;BME280;64039;53.060;9.342;2023-02-19T01:13:48;101076.06;;;4.66;100.00
75460;BME280;64039;53.060;9.342;2023-02-19T01:16:21;101088.41;;;4.55;100.00
75460;BME280;64039;53.060;9.342;2023-02-19T01:18:48;101088.56;;;4.40;100.00
75460;BME280;64039;53.060;9.342;2023-02-19T01:21:20;101093.91;;;4.45;100.00
75460;BME280;64039;53.060;9.342;2023-02-19T01:23:46;101099.19;;;4.30;100.00
75460;BME280;64039;53.060;9.342;2023-02-19T01:26:14;101091.97;;;4.06;100.00
75460;BME280;64039;53.060;9.342;2023-02-19T01:28:40;101099.06;;;3.94;100.00
75460;BME280;64039;53.060;9.342;2023-02-19T01:31:09;101086.34;;;4.14;100.00
75460;BME280;64039;53.060;9.342;2023-02-19T01:33:34;101101.31;;;4.04;100.00
75460;BME280;64039;53.060;9.342;2023-02-19T01:36:02;101108.31;;;4.07;100.00
75460;BME280;64039;53.060;9.342;2023-02-19T01:38:28;101102.72;;;4.16;100.00
75460;BME280;64039;53.060;9.342;2023-02-19T01:41:05;101096.09;;;4.19;100.00
75460;BME280;64039;53.060;9.342;2023-02-19T01:43:31;101105.00;;;4.26;100.00
75460;BME280;64039;53.060;9.342;2023-02-19T01:45:57;101112.81;;;4.28;100.00
75460;BME280;64039;53.060;9.342;2023-02-19T01:48:26;101099.09;;;4.29;100.00
75460;BME280;64039;53.060;9.342;2023-02-19T01:51:05;101092.66;;;4.20;100.00
75460;BME280;64039;53.060;9.342;2023-02-19T01:53:36;101096.53;;;4.12;100.00
75460;BME280;64039;53.060;9.342;2023-02-19T01:56:04;101093.09;;;4.12;100.00
75460;BME280;64039;53.060;9.342;2023-02-19T01:58:33;101108.06;;;4.19;100.00
75460;BME280;64039;53.060;9.342;2023-02-19T02:01:02;101091.88;;;4.21;100.00
75460;BME280;64039;53.060;9.342;2023-02-19T02:03:29;101092.66;;;4.20;100.00
75460;BME280;64039;53.060;9.342;2023-02-19T02:08:32;101099.03;;;4.11;100.00
75460;BME280;64039;53.060;9.342;2023-02-19T02:11:17;101114.50;;;3.94;100.00
75460;BME280;64039;53.060;9.342;2023-02-19T02:13:44;101114.91;;;3.85;100.00
75460;BME280;64039;53.060;9.342;2023-02-19T02:32:23;101106.78;;;3.94;100.00
75460;BME280;64039;53.060;9.342;2023-02-19T02:35:04;101099.72;;;3.90;100.00
75460;BME280;64039;53.060;9.342;2023-02-19T02:37:34;101105.16;;;3.80;100.00
75460;BME280;64039;53.060;9.342;2023-02-19T02:40:02;101101.84;;;3.66;100.00
75460;BME280;64039;53.060;9.342;2023-02-19T02:42:32;101096.88;;;3.69;100.00
75460;BME280;64039;53.060;9.342;2023-02-19T02:48:29;101103.63;;;3.67;100.00
75460;BME280;64039;53.060;9.342;2023-02-19T02:54:09;101100.81;;;3.62;100.00
75460;BME280;64039;53.060;9.342;2023-02-19T02:56:46;101106.16;;;3.50;100.00
75460;BME280;64039;53.060;9.342;2023-02-19T02:59:15;101111.66;;;3.56;100.00
75460;BME280;64039;53.060;9.342;2023-02-19T03:01:51;101112.72;;;3.45;100.00
75460;BME280;64039;53.060;9.342;2023-02-19T03:04:51;101118.81;;;3.30;100.00
75460;BME280;64039;53.060;9.342;2023-02-19T03:07:53;101116.13;;;3.44;100.00
75460;BME280;64039;53.060;9.342;2023-02-19T03:10:25;101111.88;;;3.44;100.00
75460;BME280;64039;53.060;9.342;2023-02-19T03:12:52;101127.38;;;3.46;100.00
75460;BME280;64039;53.060;9.342;2023-02-19T03:15:44;101122.75;;;3.55;100.00
75460;BME280;64039;53.060;9.342;2023-02-19T03:18:32;101128.47;;;3.66;100.00
75460;BME280;64039;53.060;9.342;2023-02-19T03:21:18;101131.03;;;3.66;100.00
75460;BME280;64039;53.060;9.342;2023-02-19T03:23:45;101132.81;;;3.67;100.00
75460;BME280;64039;53.060;9.342;2023-02-19T03:26:32;101137.25;;;3.70;100.00
75460;BME280;64039;53.060;9.342;2023-02-19T03:28:58;101138.75;;;3.66;100.00
75460;BME280;64039;53.060;9.342;2023-02-19T03:31:44;101147.50;;;3.53;100.00
75460;BME280;64039;53.060;9.342;2023-02-19T03:34:23;101137.63;;;3.61;100.00
75460;BME280;64039;53.060;9.342;2023-02-19T03:36:59;101151.00;;;3.39;100.00
75460;BME280;64039;53.060;9.342;2023-02-19T03:39:27;101149.94;;;3.35;100.00
75460;BME280;64039;53.060;9.342;2023-02-19T03:42:29;101145.84;;;3.54;100.00
75460;BME280;64039;53.060;9.342;2023-02-19T03:45:17;101148.06;;;3.48;100.00
75460;BME280;64039;53.060;9.342;2023-02-19T03:47:55;101154.91;;;3.47;100.00
75460;BME280;64039;53.060;9.342;2023-02-19T03:50:26;101163.59;;;3.49;100.00
75460;BME280;64039;53.060;9.342;2023-02-19T03:53:04;101160.81;;;3.61;100.00
75460;BME280;64039;53.060;9.342;2023-02-19T03:58:29;101167.94;;;3.50;100.00
75460;BME280;64039;53.060;9.342;2023-02-19T04:01:05;101184.91;;;3.46;100.00
75460;BME280;64039;53.060;9.342;2023-02-19T04:03:51;101181.81;;;3.37;100.00
75460;BME280;64039;53.060;9.342;2023-02-19T04:06:26;101188.28;;;3.30;100.00
75460;BME280;64039;53.060;9.342;2023-02-19T04:08:55;101196.59;;;3.41;100.00
75460;BME280;64039;53.060;9.342;2023-02-19T04:11:22;101203.53;;;3.27;100.00
75460;BME280;64039;53.060;9.342;2023-02-19T04:13:55;101205.22;;;3.42;100.00
75460;BME280;64039;53.060;9.342;2023-02-19T04:16:26;101207.69;;;3.40;100.00
75460;BME280;64039;53.060;9.342;2023-02-19T04:18:56;101221.19;;;3.36;100.00
75460;BME280;64039;53.060;9.342;2023-02-19T04:21:24;101222.34;;;3.41;100.00
75460;BME280;64039;53.060;9.342;2023-02-19T04:23:50;101226.69;;;3.42;100.00
75460;BME280;64039;53.060;9.342;2023-02-19T04:26:16;101233.94;;;3.50;100.00
75460;BME280;64039;53.060;9.342;2023-02-19T04:28:45;101236.19;;;3.58;100.00
75460;BME280;64039;53.060;9.342;2023-02-19T04:31:11;101244.16;;;3.63;100.00
75460;BME280;64039;53.060;9.342;2023-02-19T04:33:36;101248.31;;;3.61;100.00
75460;BME280;64039;53.060;9.342;2023-02-19T04:36:02;101260.94;;;3.56;100.00
75460;BME280;64039;53.060;9.342;2023-02-19T04:38:28;101257.91;;;3.49;100.00
75460;BME280;64039;53.060;9.342;2023-02-19T04:40:53;101250.19;;;3.49;100.00
75460;BME280;64039;53.060;9.342;2023-02-19T04:43:18;101258.44;;;3.58;100.00
75460;BME280;64039;53.060;9.342;2023-02-19T04:45:44;101264.66;;;3.61;100.00
75460;BME280;64039;53.060;9.342;2023-02-19T04:48:09;101266.16;;;3.58;100.00
75460;BME280;64039;53.060;9.342;2023-02-19T04:50:38;101272.75;;;3.53;100.00
75460;BME280;64039;53.060;9.342;2023-02-19T04:53:04;101279.06;;;3.43;100.00
75460;BME280;64039;53.060;9.342;2023-02-19T04:55:30;101280.19;;;3.48;100.00
75460;BME280;64039;53.060;9.342;2023-02-19T04:57:56;101277.72;;;3.50;100.00
75460;BME280;64039;53.060;9.342;2023-02-19T05:00:21;101281.34;;;3.53;100.00
75460;BME280;64039;53.060;9.342;2023-02-19T05:02:47;101286.59;;;3.55;100.00
75460;BME280;64039;53.060;9.342;2023-02-19T05:05:12;101289.97;;;3.54;100.00
75460;BME280;64039;53.060;9.342;2023-02-19T05:07:38;101301.59;;;3.62;100.00
75460;BME280;64039;53.060;9.342;2023-02-19T05:10:03;101301.50;;;3.60;100.00
75460;BME280;64039;53.060;9.342;2023-02-19T05:12:29;101308.41;;;3.61;100.00
75460;BME280;64039;53.060;9.342;2023-02-19T05:14:55;101307.91;;;3.52;100.00
75460;BME280;64039;53.060;9.342;2023-02-19T05:17:21;101311.00;;;3.46;100.00
75460;BME280;64039;53.060;9.342;2023-02-19T05:19:46;101318.19;;;3.52;100.00
75460;BME280;64039;53.060;9.342;2023-02-19T05:22:11;101323.44;;;3.54;100.00
75460;BME280;64039;53.060;9.342;2023-02-19T05:24:37;101317.56;;;3.56;100.00
75460;BME280;64039;53.060;9.342;2023-02-19T05:27:02;101325.28;;;3.56;100.00
75460;BME280;64039;53.060;9.342;2023-02-19T05:29:29;101329.28;;;3.51;100.00
75460;BME280;64039;53.060;9.342;2023-02-19T05:31:55;101344.63;;;3.50;100.00
75460;BME280;64039;53.060;9.342;2023-02-19T05:34:20;101352.19;;;3.46;100.00
75460;BME280;64039;53.060;9.342;2023-02-19T05:36:46;101354.72;;;3.32;100.00
75460;BME280;64039;53.060;9.342;2023-02-19T05:39:11;101346.31;;;3.34;100.00
75460;BME280;64039;53.060;9.342;2023-02-19T05:41:36;101352.34;;;3.35;100.00
75460;BME280;64039;53.060;9.342;2023-02-19T05:44:03;101353.41;;;3.38;100.00
75460;BME280;64039;53.060;9.342;2023-02-19T05:46:28;101359.69;;;3.28;100.00
75460;BME280;64039;53.060;9.342;2023-02-19T05:48:54;101361.13;;;3.38;100.00
75460;BME280;64039;53.060;9.342;2023-02-19T05:51:22;101367.34;;;3.42;100.00
75460;BME280;64039;53.060;9.342;2023-02-19T05:53:48;101367.84;;;3.21;100.00
75460;BME280;64039;53.060;9.342;2023-02-19T05:58:49;101393.47;;;3.20;100.00
75460;BME280;64039;53.060;9.342;2023-02-19T06:01:19;101401.50;;;3.11;100.00
75460;BME280;64039;53.060;9.342;2023-02-19T06:03:45;101397.06;;;2.93;100.00
75460;BME280;64039;53.060;9.342;2023-02-19T06:06:15;101408.72;;;2.88;100.00
75460;BME280;64039;53.060;9.342;2023-02-19T06:08:40;101415.34;;;2.85;100.00
75460;BME280;64039;53.060;9.342;2023-02-19T06:11:06;101420.00;;;2.90;100.00
75460;BME280;64039;53.060;9.342;2023-02-19T06:13:31;101426.28;;;3.09;100.00
75460;BME280;64039;53.060;9.342;2023-02-19T06:15:57;101430.47;;;2.93;100.00
75460;BME280;64039;53.060;9.342;2023-02-19T06:18:22;101433.34;;;2.98;100.00
75460;BME280;64039;53.060;9.342;2023-02-19T06:20:48;101433.28;;;3.11;100.00
75460;BME280;64039;53.060;9.342;2023-02-19T06:23:13;101428.13;;;3.11;100.00
75460;BME280;64039;53.060;9.342;2023-02-19T06:25:39;101437.84;;;3.02;100.00
75460;BME280;64039;53.060;9.342;2023-02-19T06:28:05;101445.53;;;3.15;100.00
75460;BME280;64039;53.060;9.342;2023-02-19T06:30:30;101443.84;;;3.16;100.00
75460;BME280;64039;53.060;9.342;2023-02-19T06:32:56;101445.88;;;3.07;100.00
75460;BME280;64039;53.060;9.342;2023-02-19T06:35:21;101452.38;;;3.15;100.00
75460;BME280;64039;53.060;9.342;2023-02-19T06:37:47;101448.53;;;3.08;100.00
75460;BME280;64039;53.060;9.342;2023-02-19T06:40:13;101462.66;;;3.15;100.00
75460;BME280;64039;53.060;9.342;2023-02-19T06:42:38;101471.53;;;3.20;100.00
75460;BME280;64039;53.060;9.342;2023-02-19T06:45:04;101474.75;;;3.03;100.00
75460;BME280;64039;53.060;9.342;2023-02-19T06:47:31;101483.28;;;3.02;100.00
75460;BME280;64039;53.060;9.342;2023-02-19T06:49:57;101490.88;;;3.00;100.00
75460;BME280;64039;53.060;9.342;2023-02-19T06:52:22;101496.63;;;2.96;100.00
75460;BME280;64039;53.060;9.342;2023-02-19T06:54:48;101507.63;;;2.93;100.00
75460;BME280;64039;53.060;9.342;2023-02-19T06:57:13;101508.22;;;2.89;100.00
75460;BME280;64039;53.060;9.342;2023-02-19T06:59:38;101517.22;;;2.96;100.00
75460;BME280;64039;53.060;9.342;2023-02-19T07:02:04;101519.19;;;2.87;100.00
75460;BME280;64039;53.060;9.342;2023-02-19T07:04:29;101529.94;;;2.94;100.00
75460;BME280;64039;53.060;9.342;2023-02-19T07:06:55;101524.44;;;2.75;100.00
75460;BME280;64039;53.060;9.342;2023-02-19T07:09:20;101528.06;;;2.92;100.00
75460;BME280;64039;53.060;9.342;2023-02-19T07:11:47;101529.44;;;3.00;100.00
75460;BME280;64039;53.060;9.342;2023-02-19T07:14:14;101536.00;;;2.95;100.00
75460;BME280;64039;53.060;9.342;2023-02-19T07:16:41;101542.31;;;3.00;100.00
75460;BME280;64039;53.060;9.342;2023-02-19T07:19:06;101547.94;;;2.94;100.00
75460;BME280;64039;53.060;9.342;2023-02-19T07:21:31;101548.47;;;2.89;100.00
75460;BME280;64039;53.060;9.342;2023-02-19T07:24:02;101568.94;;;2.87;100.00
75460;BME280;64039;53.060;9.342;2023-02-19T07:26:27;101572.28;;;2.73;100.00
75460;BME280;64039;53.060;9.342;2023-02-19T07:28:53;101576.84;;;2.90;100.00
75460;BME280;64039;53.060;9.342;2023-02-19T07:31:20;101581.09;;;2.76;100.00
75460;BME280;64039;53.060;9.342;2023-02-19T07:33:46;101590.19;;;2.71;100.00
75460;BME280;64039;53.060;9.342;2023-02-19T07:36:13;101599.78;;;2.74;100.00
75460;BME280;64039;53.060;9.342;2023-02-19T07:38:39;101606.72;;;2.75;100.00
75460;BME280;64039;53.060;9.342;2023-02-19T07:41:05;101611.53;;;2.70;100.00
75460;BME280;64039;53.060;9.342;2023-02-19T07:43:33;101613.53;;;2.88;100.00
75460;BME280;64039;53.060;9.342;2023-02-19T07:46:07;101620.56;;;2.90;100.00
75460;BME280;64039;53.060;9.342;2023-02-19T07:48:34;101626.00;;;2.95;100.00
75460;BME280;64039;53.060;9.342;2023-02-19T07:51:00;101636.00;;;3.04;100.00
75460;BME280;64039;53.060;9.342;2023-02-19T07:53:26;101638.78;;;2.93;100.00
75460;BME280;64039;53.060;9.342;2023-02-19T07:55:53;101634.59;;;2.95;100.00
75460;BME280;64039;53.060;9.342;2023-02-19T07:58:22;101643.31;;;3.11;100.00
75460;BME280;64039;53.060;9.342;2023-02-19T08:00:48;101655.28;;;3.24;100.00
75460;BME280;64039;53.060;9.342;2023-02-19T08:03:13;101659.03;;;3.15;100.00
75460;BME280;64039;53.060;9.342;2023-02-19T08:05:40;101657.94;;;3.12;100.00
75460;BME280;64039;53.060;9.342;2023-02-19T08:08:11;101665.00;;;3.14;100.00
75460;BME280;64039;53.060;9.342;2023-02-19T08:10:37;101669.75;;;3.22;100.00
75460;BME280;64039;53.060;9.342;2023-02-19T08:13:21;101655.22;;;3.36;100.00
75460;BME280;64039;53.060;9.342;2023-02-19T08:15:52;101661.63;;;3.29;100.00
75460;BME280;64039;53.060;9.342;2023-02-19T08:18:21;101654.50;;;3.38;100.00
75460;BME280;64039;53.060;9.342;2023-02-19T08:20:47;101653.63;;;3.24;100.00
75460;BME280;64039;53.060;9.342;2023-02-19T08:23:13;101652.63;;;3.22;100.00
75460;BME280;64039;53.060;9.342;2023-02-19T08:25:40;101645.00;;;3.10;100.00
75460;BME280;64039;53.060;9.342;2023-02-19T08:28:07;101647.09;;;3.16;100.00
75460;BME280;64039;53.060;9.342;2023-02-19T08:30:34;101650.34;;;3.27;100.00
75460;BME280;64039;53.060;9.342;2023-02-19T08:33:00;101658.16;;;3.28;100.00
75460;BME280;64039;53.060;9.342;2023-02-19T08:35:26;101660.56;;;3.25;100.00
75460;BME280;64039;53.060;9.342;2023-02-19T08:37:56;101665.47;;;3.22;100.00
75460;BME280;64039;53.060;9.342;2023-02-19T08:40:22;101664.00;;;3.39;100.00
75460;BME280;64039;53.060;9.342;2023-02-19T08:42:47;101674.69;;;3.45;100.00
75460;BME280;64039;53.060;9.342;2023-02-19T08:45:13;101678.44;;;3.64;100.00
75460;BME280;64039;53.060;9.342;2023-02-19T08:47:38;101690.72;;;3.55;100.00
75460;BME280;64039;53.060;9.342;2023-02-19T08:50:05;101699.31;;;3.55;100.00
75460;BME280;64039;53.060;9.342;2023-02-19T08:52:31;101696.66;;;3.54;100.00
75460;BME280;64039;53.060;9.342;2023-02-19T08:54:57;101715.56;;;3.41;100.00
75460;BME280;64039;53.060;9.342;2023-02-19T08:57:23;101717.63;;;3.33;100.00
75460;BME280;64039;53.060;9.342;2023-02-19T08:59:49;101716.44;;;3.41;100.00
75460;BME280;64039;53.060;9.342;2023-02-19T09:02:15;101722.50;;;3.69;100.00
75460;BME280;64039;53.060;9.342;2023-02-19T09:04:40;101721.06;;;3.87;100.00
75460;BME280;64039;53.060;9.342;2023-02-19T09:07:06;101715.03;;;3.87;100.00
75460;BME280;64039;53.060;9.342;2023-02-19T09:09:35;101715.75;;;3.84;100.00
75460;BME280;64039;53.060;9.342;2023-02-19T09:12:06;101716.41;;;3.95;100.00
75460;BME280;64039;53.060;9.342;2023-02-19T09:14:32;101725.72;;;4.06;100.00
75460;BME280;64039;53.060;9.342;2023-02-19T09:16:59;101721.72;;;4.12;100.00
75460;BME280;64039;53.060;9.342;2023-02-19T09:19:25;101729.41;;;4.25;100.00
75460;BME280;64039;53.060;9.342;2023-02-19T09:21:50;101732.91;;;4.12;100.00
75460;BME280;64039;53.060;9.342;2023-02-19T09:24:16;101744.53;;;3.92;100.00
75460;BME280;64039;53.060;9.342;2023-02-19T09:26:41;101749.81;;;3.93;100.00
75460;BME280;64039;53.060;9.342;2023-02-19T09:29:07;101758.78;;;4.00;100.00
75460;BME280;64039;53.060;9.342;2023-02-19T09:31:32;101753.09;;;4.33;100.00
75460;BME280;64039;53.060;9.342;2023-02-19T09:33:59;101760.13;;;4.35;100.00
75460;BME280;64039;53.060;9.342;2023-02-19T09:36:25;101763.25;;;4.45;100.00
75460;BME280;64039;53.060;9.342;2023-02-19T09:38:51;101762.09;;;4.39;100.00
75460;BME280;64039;53.060;9.342;2023-02-19T09:41:30;101773.50;;;4.43;100.00
75460;BME280;64039;53.060;9.342;2023-02-19T09:43:57;101776.41;;;4.21;100.00
75460;BME280;64039;53.060;9.342;2023-02-19T09:46:30;101781.97;;;4.14;100.00
75460;BME280;64039;53.060;9.342;2023-02-19T09:49:06;101800.09;;;4.15;100.00
75460;BME280;64039;53.060;9.342;2023-02-19T09:51:35;101800.78;;;4.26;100.00
75460;BME280;64039;53.060;9.342;2023-02-19T09:54:03;101801.81;;;4.15;100.00
75460;BME280;64039;53.060;9.342;2023-02-19T09:56:30;101811.41;;;4.17;100.00
75460;BME280;64039;53.060;9.342;2023-02-19T09:58:57;101823.59;;;4.20;100.00
75460;BME280;64039;53.060;9.342;2023-02-19T10:01:26;101826.34;;;4.36;100.00
75460;BME280;64039;53.060;9.342;2023-02-19T10:03:53;101827.41;;;4.40;100.00
75460;BME280;64039;53.060;9.342;2023-02-19T10:06:21;101825.41;;;4.49;100.00
75460;BME280;64039;53.060;9.342;2023-02-19T10:08:50;101835.22;;;4.55;100.00
75460;BME280;64039;53.060;9.342;2023-02-19T10:11:16;101840.44;;;4.70;100.00
75460;BME280;64039;53.060;9.342;2023-02-19T10:13:48;101843.41;;;4.91;100.00
75460;BME280;64039;53.060;9.342;2023-02-19T10:16:25;101837.03;;;4.84;100.00
75460;BME280;64039;53.060;9.342;2023-02-19T10:18:52;101845.03;;;4.89;100.00
75460;BME280;64039;53.060;9.342;2023-02-19T10:21:22;101837.31;;;5.04;100.00
75460;BME280;64039;53.060;9.342;2023-02-19T10:23:51;101855.00;;;4.98;100.00
75460;BME280;64039;53.060;9.342;2023-02-19T10:26:18;101851.28;;;4.93;100.00
75460;BME280;64039;53.060;9.342;2023-02-19T10:28:44;101847.13;;;4.81;100.00
75460;BME280;64039;53.060;9.342;2023-02-19T10:31:18;101848.88;;;4.96;100.00
75460;BME280;64039;53.060;9.342;2023-02-19T10:36:28;101828.00;;;5.21;100.00
75460;BME280;64039;53.060;9.342;2023-02-19T10:38:56;101822.66;;;5.18;100.00
75460;BME280;64039;53.060;9.342;2023-02-19T10:41:23;101844.53;;;5.10;100.00
75460;BME280;64039;53.060;9.342;2023-02-19T10:44:04;101842.31;;;5.01;100.00
75460;BME280;64039;53.060;9.342;2023-02-19T10:46:36;101849.97;;;5.14;100.00
75460;BME280;64039;53.060;9.342;2023-02-19T10:49:28;101848.63;;;5.06;100.00
75460;BME280;64039;53.060;9.342;2023-02-19T10:52:00;101846.88;;;5.20;100.00
75460;BME280;64039;53.060;9.342;2023-02-19T10:54:33;101856.00;;;5.43;100.00
75460;BME280;64039;53.060;9.342;2023-02-19T10:57:23;101860.72;;;5.50;100.00
75460;BME280;64039;53.060;9.342;2023-02-19T10:59:57;101868.91;;;5.43;100.00
75460;BME280;64039;53.060;9.342;2023-02-19T11:02:24;101877.00;;;5.49;100.00
75460;BME280;64039;53.060;9.342;2023-02-19T11:05:08;101883.69;;;5.46;100.00
75460;BME280;64039;53.060;9.342;2023-02-19T11:07:58;101882.44;;;5.84;100.00
75460;BME280;64039;53.060;9.342;2023-02-19T11:10:39;101891.72;;;5.80;100.00
75460;BME280;64039;53.060;9.342;2023-02-19T11:13:11;101898.94;;;5.56;100.00
75460;BME280;64039;53.060;9.342;2023-02-19T11:15:40;101911.03;;;5.42;100.00
75460;BME280;64039;53.060;9.342;2023-02-19T11:18:21;101909.75;;;5.35;100.00
75460;BME280;64039;53.060;9.342;2023-02-19T11:20:58;101897.94;;;5.54;100.00
75460;BME280;64039;53.060;9.342;2023-02-19T11:23:30;101899.22;;;5.61;100.00
75460;BME280;64039;53.060;9.342;2023-02-19T11:26:00;101902.38;;;5.57;100.00
75460;BME280;64039;53.060;9.342;2023-02-19T11:28:39;101900.34;;;5.51;100.00
75460;BME280;64039;53.060;9.342;2023-02-19T11:34:03;101897.06;;;5.54;100.00
75460;BME280;64039;53.060;9.342;2023-02-19T11:37:16;101889.47;;;5.57;100.00
75460;BME280;64039;53.060;9.342;2023-02-19T11:39:44;101890.19;;;5.84;100.00
75460;BME280;64039;53.060;9.342;2023-02-19T11:42:21;101885.13;;;5.86;100.00
75460;BME280;64039;53.060;9.342;2023-02-19T11:50:28;101884.03;;;6.27;100.00
75460;BME280;64039;53.060;9.342;2023-02-19T11:55:52;101881.81;;;6.18;100.00
75460;BME280;64039;53.060;9.342;2023-02-19T12:01:45;101899.28;;;6.22;98.77
75460;BME280;64039;53.060;9.342;2023-02-19T12:04:47;101889.47;;;6.32;99.88
75460;BME280;64039;53.060;9.342;2023-02-19T12:10:30;101886.09;;;6.33;93.13
75460;BME280;64039;53.060;9.342;2023-02-19T12:24:07;101910.03;;;6.45;95.06
75460;BME280;64039;53.060;9.342;2023-02-19T12:29:46;101906.72;;;6.48;95.53
75460;BME280;64039;53.060;9.342;2023-02-19T12:40:32;101908.97;;;6.41;90.38
75460;BME280;64039;53.060;9.342;2023-02-19T12:43:20;101908.84;;;6.23;88.79
75460;BME280;64039;53.060;9.342;2023-02-19T12:48:19;101901.47;;;6.46;90.17
75460;BME280;64039;53.060;9.342;2023-02-19T12:50:54;101902.69;;;6.53;98.62
75460;BME280;64039;53.060;9.342;2023-02-19T12:53:31;101915.09;;;6.58;99.74
75460;BME280;64039;53.060;9.342;2023-02-19T12:56:04;101912.28;;;6.70;97.69
75460;BME280;64039;53.060;9.342;2023-02-19T12:58:49;101912.53;;;6.75;92.65
75460;BME280;64039;53.060;9.342;2023-02-19T13:01:22;101906.44;;;6.74;91.46
75460;BME280;64039;53.060;9.342;2023-02-19T13:04:01;101905.66;;;6.44;86.66
75460;BME280;64039;53.060;9.342;2023-02-19T13:06:36;101913.56;;;6.62;89.44
75460;BME280;64039;53.060;9.342;2023-02-19T13:09:33;101918.34;;;6.71;90.08
75460;BME280;64039;53.060;9.342;2023-02-19T13:14:46;101909.00;;;7.06;93.67
75460;BME280;64039;53.060;9.342;2023-02-19T13:17:22;101898.94;;;6.79;92.50
75460;BME280;64039;53.060;9.342;2023-02-19T13:19:55;101898.72;;;6.91;91.65
75460;BME280;64039;53.060;9.342;2023-02-19T13:22:35;101891.91;;;6.76;91.16
75460;BME280;64039;53.060;9.342;2023-02-19T13:25:29;101899.63;;;6.91;91.87
75460;BME280;64039;53.060;9.342;2023-02-19T13:28:20;101890.38;;;6.80;87.64
75460;BME280;64039;53.060;9.342;2023-02-19T13:31:09;101884.72;;;6.87;83.62
75460;BME280;64039;53.060;9.342;2023-02-19T13:33:43;101886.44;;;7.03;85.07
75460;BME280;64039;53.060;9.342;2023-02-19T13:36:19;101890.88;;;6.89;82.76
75460;BME280;64039;53.060;9.342;2023-02-19T13:38:48;101898.47;;;7.03;83.74
75460;BME280;64039;53.060;9.342;2023-02-19T13:41:27;101898.56;;;7.21;84.59
75460;BME280;64039;53.060;9.342;2023-02-19T13:44:01;101900.09;;;7.17;83.20
75460;BME280;64039;53.060;9.342;2023-02-19T13:46:44;101899.38;;;6.87;79.84
75460;BME280;64039;53.060;9.342;2023-02-19T13:52:04;101894.75;;;7.14;79.54
75460;BME280;64039;53.060;9.342;2023-02-19T13:54:45;101904.63;;;7.21;81.63
75460;BME280;64039;53.060;9.342;2023-02-19T13:59:55;101909.31;;;7.29;82.89
75460;BME280;64039;53.060;9.342;2023-02-19T14:02:33;101912.94;;;7.16;85.86
75460;BME280;64039;53.060;9.342;2023-02-19T14:05:04;101908.94;;;7.04;83.22
75460;BME280;64039;53.060;9.342;2023-02-19T14:07:52;101916.34;;;6.98;83.76
75460;BME280;64039;53.060;9.342;2023-02-19T14:10:53;101923.28;;;6.83;82.88
75460;BME280;64039;53.060;9.342;2023-02-19T14:18:53;101935.72;;;6.73;85.51
75460;BME280;64039;53.060;9.342;2023-02-19T14:21:25;101941.38;;;6.66;86.35
75460;BME280;64039;53.060;9.342;2023-02-19T14:23:58;101936.47;;;6.56;81.90
75460;BME280;64039;53.060;9.342;2023-02-19T14:26:24;101932.28;;;6.58;84.49
75460;BME280;64039;53.060;9.342;2023-02-19T14:28:51;101936.59;;;6.57;84.81
75460;BME280;64039;53.060;9.342;2023-02-19T14:31:31;101932.41;;;6.44;84.23
75460;BME280;64039;53.060;9.342;2023-02-19T14:34:00;101928.16;;;6.61;85.78
75460;BME280;64039;53.060;9.342;2023-02-19T14:36:46;101920.13;;;6.72;86.21